sensor_id;sensor_type;location;lat;lon;timestamp;P1;durP1;ratioP1;P2;durP2;ratioP2
76439;SDS011;65274;44.982;20.060;2024-01-30T06:29:26;135.18;;;65.55;;
76439;SDS011;65274;44.982;20.060;2024-01-30T07:10:49;120.80;;;64.95;;
76439;SDS011;65274;44.982;20.060;2024-01-30T07:13:20;116.03;;;58.03;;
76439;SDS011;65274;44.982;20.060;2024-01-30T07:15:46;99.28;;;55.63;;
76439;SDS011;65274;44.982;20.060;2024-01-30T07:18:12;119.15;;;63.15;;
76439;SDS011;65274;44.982;20.060;2024-01-30T07:20:57;110.93;;;57.55;;
76439;SDS011;65274;44.982;20.060;2024-01-30T07:23:23;117.57;;;59.05;;
76439;SDS011;65274;44.982;20.060;2024-01-30T07:25:49;120.90;;;59.72;;
76439;SDS011;65274;44.982;20.060;2024-01-30T07:28:15;114.45;;;55.40;;
76439;SDS011;65274;44.982;20.060;2024-01-30T07:30:42;111.68;;;54.80;;
76439;SDS011;65274;44.982;20.060;2024-01-30T07:33:08;120.57;;;58.00;;
76439;SDS011;65274;44.982;20.060;2024-01-30T07:35:35;126.10;;;63.50;;
76439;SDS011;65274;44.982;20.060;2024-01-30T07:38:01;120.88;;;58.88;;
76439;SDS011;65274;44.982;20.060;2024-01-30T07:40:27;118.10;;;59.05;;
76439;SDS011;65274;44.982;20.060;2024-01-30T07:42:53;103.95;;;57.83;;
76439;SDS011;65274;44.982;20.060;2024-01-30T07:45:19;102.15;;;53.67;;
76439;SDS011;65274;44.982;20.060;2024-01-30T07:47:49;103.97;;;55.88;;
76439;SDS011;65274;44.982;20.060;2024-01-30T07:50:16;104.63;;;55.90;;
76439;SDS011;65274;44.982;20.060;2024-01-30T07:52:42;112.95;;;52.85;;
76439;SDS011;65274;44.982;20.060;2024-01-30T07:55:09;87.50;;;49.10;;
76439;SDS011;65274;44.982;20.060;2024-01-30T07:57:35;85.95;;;49.60;;
76439;SDS011;65274;44.982;20.060;2024-01-30T08:00:01;79.63;;;47.97;;
76439;SDS011;65274;44.982;20.060;2024-01-30T08:02:32;79.50;;;47.83;;
76439;SDS011;65274;44.982;20.060;2024-01-30T08:04:58;79.32;;;46.78;;
76439;SDS011;65274;44.982;20.060;2024-01-30T08:07:24;75.70;;;45.47;;
76439;SDS011;65274;44.982;20.060;2024-01-30T09:18:30;48.38;;;34.92;;
76439;SDS011;65274;44.982;20.060;2024-01-30T10:00:24;27.33;;;21.05;;
76439;SDS011;65274;44.982;20.060;2024-01-30T10:03:09;32.22;;;22.65;;
76439;SDS011;65274;44.982;20.060;2024-01-30T10:05:35;23.67;;;15.93;;
76439;SDS011;65274;44.982;20.060;2024-01-30T10:20:18;19.00;;;12.75;;
76439;SDS011;65274;44.982;20.060;2024-01-30T10:23:02;20.35;;;12.73;;
76439;SDS011;65274;44.982;20.060;2024-01-30T10:25:29;17.88;;;10.85;;
76439;SDS011;65274;44.982;20.060;2024-01-30T10:27:55;15.15;;;11.57;;
76439;SDS011;65274;44.982;20.060;2024-01-30T10:30:24;17.95;;;12.50;;
76439;SDS011;65274;44.982;20.060;2024-01-30T10:32:50;15.25;;;11.23;;
76439;SDS011;65274;44.982;20.060;2024-01-30T10:35:16;12.57;;;9.43;;
76439;SDS011;65274;44.982;20.060;2024-01-30T10:37:47;11.13;;;7.93;;
76439;SDS011;65274;44.982;20.060;2024-01-30T10:40:13;9.00;;;7.50;;
76439;SDS011;65274;44.982;20.060;2024-01-30T10:42:45;10.60;;;8.18;;
76439;SDS011;65274;44.982;20.060;2024-01-30T10:45:12;10.52;;;8.85;;
76439;SDS011;65274;44.982;20.060;2024-01-30T10:47:59;16.83;;;8.93;;
76439;SDS011;65274;44.982;20.060;2024-01-30T10:50:25;8.00;;;7.20;;
76439;SDS011;65274;44.982;20.060;2024-01-30T10:55:30;9.93;;;7.35;;
76439;SDS011;65274;44.982;20.060;2024-01-30T10:57:57;11.10;;;7.65;;
76439;SDS011;65274;44.982;20.060;2024-01-30T11:00:24;8.25;;;6.13;;
76439;SDS011;65274;44.982;20.060;2024-01-30T11:02:51;8.35;;;6.85;;
76439;SDS011;65274;44.982;20.060;2024-01-30T11:05:24;9.50;;;6.82;;
76439;SDS011;65274;44.982;20.060;2024-01-30T11:07:54;10.73;;;6.90;;
76439;SDS011;65274;44.982;20.060;2024-01-30T11:10:20;14.00;;;7.43;;
76439;SDS011;65274;44.982;20.060;2024-01-30T11:12:46;12.88;;;9.25;;
76439;SDS011;65274;44.982;20.060;2024-01-30T11:15:13;13.88;;;10.95;;
76439;SDS011;65274;44.982;20.060;2024-01-30T11:22:49;8.30;;;6.90;;
76439;SDS011;65274;44.982;20.060;2024-01-30T11:25:16;8.23;;;7.18;;
76439;SDS011;65274;44.982;20.060;2024-01-30T11:27:43;8.52;;;7.50;;
76439;SDS011;65274;44.982;20.060;2024-01-30T11:30:09;13.57;;;10.03;;
76439;SDS011;65274;44.982;20.060;2024-01-30T11:32:36;10.98;;;8.35;;
76439;SDS011;65274;44.982;20.060;2024-01-30T11:35:05;13.10;;;10.93;;
76439;SDS011;65274;44.982;20.060;2024-01-30T11:37:34;15.95;;;10.02;;
76439;SDS011;65274;44.982;20.060;2024-01-30T11:40:03;12.23;;;9.77;;
76439;SDS011;65274;44.982;20.060;2024-01-30T11:42:30;9.63;;;8.73;;
76439;SDS011;65274;44.982;20.060;2024-01-30T11:44:56;12.48;;;9.55;;
76439;SDS011;65274;44.982;20.060;2024-01-30T11:47:22;13.20;;;7.90;;
76439;SDS011;65274;44.982;20.060;2024-01-30T11:49:49;12.05;;;10.00;;
76439;SDS011;65274;44.982;20.060;2024-01-30T11:52:15;12.25;;;9.20;;
76439;SDS011;65274;44.982;20.060;2024-01-30T11:54:41;11.70;;;8.77;;
76439;SDS011;65274;44.982;20.060;2024-01-30T11:57:08;9.43;;;8.10;;
76439;SDS011;65274;44.982;20.060;2024-01-30T11:59:34;9.35;;;7.88;;
76439;SDS011;65274;44.982;20.060;2024-01-30T12:02:00;11.82;;;8.85;;
76439;SDS011;65274;44.982;20.060;2024-01-30T12:04:29;13.88;;;9.40;;
76439;SDS011;65274;44.982;20.060;2024-01-30T12:06:56;6.97;;;6.28;;
76439;SDS011;65274;44.982;20.060;2024-01-30T12:09:22;8.15;;;6.75;;
76439;SDS011;65274;44.982;20.060;2024-01-30T12:11:48;10.75;;;8.32;;
76439;SDS011;65274;44.982;20.060;2024-01-30T12:14:17;6.18;;;5.55;;
76439;SDS011;65274;44.982;20.060;2024-01-30T12:16:47;13.18;;;8.18;;
76439;SDS011;65274;44.982;20.060;2024-01-30T12:19:24;6.68;;;5.18;;
76439;SDS011;65274;44.982;20.060;2024-01-30T12:21:57;7.28;;;6.20;;
76439;SDS011;65274;44.982;20.060;2024-01-30T12:24:27;9.57;;;7.25;;
76439;SDS011;65274;44.982;20.060;2024-01-30T12:26:58;5.88;;;5.00;;
76439;SDS011;65274;44.982;20.060;2024-01-30T12:29:25;5.38;;;4.85;;
76439;SDS011;65274;44.982;20.060;2024-01-30T12:31:54;5.07;;;4.57;;
76439;SDS011;65274;44.982;20.060;2024-01-30T12:34:21;9.73;;;6.10;;
76439;SDS011;65274;44.982;20.060;2024-01-30T12:36:47;6.82;;;5.50;;
76439;SDS011;65274;44.982;20.060;2024-01-30T12:39:15;5.50;;;4.80;;
76439;SDS011;65274;44.982;20.060;2024-01-30T12:41:41;8.20;;;5.38;;
76439;SDS011;65274;44.982;20.060;2024-01-30T12:44:07;5.78;;;4.95;;
76439;SDS011;65274;44.982;20.060;2024-01-30T12:46:34;6.38;;;4.95;;
76439;SDS011;65274;44.982;20.060;2024-01-30T12:49:00;9.93;;;5.35;;
76439;SDS011;65274;44.982;20.060;2024-01-30T12:51:26;7.55;;;5.32;;
76439;SDS011;65274;44.982;20.060;2024-01-30T12:53:52;6.57;;;5.47;;
76439;SDS011;65274;44.982;20.060;2024-01-30T12:56:18;6.28;;;5.68;;
76439;SDS011;65274;44.982;20.060;2024-01-30T12:58:44;5.57;;;4.90;;
76439;SDS011;65274;44.982;20.060;2024-01-30T13:01:11;6.60;;;5.20;;
76439;SDS011;65274;44.982;20.060;2024-01-30T13:03:37;5.40;;;4.45;;
76439;SDS011;65274;44.982;20.060;2024-01-30T13:06:03;6.40;;;4.90;;
76439;SDS011;65274;44.982;20.060;2024-01-30T13:08:30;6.35;;;4.22;;
76439;SDS011;65274;44.982;20.060;2024-01-30T13:10:56;6.60;;;4.72;;
76439;SDS011;65274;44.982;20.060;2024-01-30T13:13:26;6.55;;;4.80;;
76439;SDS011;65274;44.982;20.060;2024-01-30T13:15:58;5.03;;;4.05;;
76439;SDS011;65274;44.982;20.060;2024-01-30T13:18:33;4.18;;;3.72;;
76439;SDS011;65274;44.982;20.060;2024-01-30T13:21:03;5.82;;;4.07;;
76439;SDS011;65274;44.982;20.060;2024-01-30T13:23:29;5.20;;;4.32;;
76439;SDS011;65274;44.982;20.060;2024-01-30T13:25:56;7.22;;;5.03;;
76439;SDS011;65274;44.982;20.060;2024-01-30T13:28:23;6.97;;;4.82;;
76439;SDS011;65274;44.982;20.060;2024-01-30T13:30:50;5.93;;;4.13;;
76439;SDS011;65274;44.982;20.060;2024-01-30T13:33:16;8.88;;;5.43;;
76439;SDS011;65274;44.982;20.060;2024-01-30T13:35:42;7.80;;;5.80;;
76439;SDS011;65274;44.982;20.060;2024-01-30T13:38:09;7.88;;;5.18;;
76439;SDS011;65274;44.982;20.060;2024-01-30T13:40:35;7.28;;;5.38;;
76439;SDS011;65274;44.982;20.060;2024-01-30T13:43:01;9.85;;;6.20;;
76439;SDS011;65274;44.982;20.060;2024-01-30T13:45:27;5.72;;;4.82;;
76439;SDS011;65274;44.982;20.060;2024-01-30T13:47:53;9.65;;;5.30;;
76439;SDS011;65274;44.982;20.060;2024-01-30T13:50:19;5.93;;;4.70;;
76439;SDS011;65274;44.982;20.060;2024-01-30T13:52:46;7.10;;;4.68;;
76439;SDS011;65274;44.982;20.060;2024-01-30T13:55:12;6.85;;;4.90;;
76439;SDS011;65274;44.982;20.060;2024-01-30T13:57:38;9.82;;;4.97;;
76439;SDS011;65274;44.982;20.060;2024-01-30T14:12:47;10.63;;;6.18;;
76439;SDS011;65274;44.982;20.060;2024-01-30T14:15:13;8.63;;;6.15;;
76439;SDS011;65274;44.982;20.060;2024-01-30T14:17:47;15.48;;;9.60;;
76439;SDS011;65274;44.982;20.060;2024-01-30T14:20:14;9.35;;;7.38;;
76439;SDS011;65274;44.982;20.060;2024-01-30T14:22:44;9.70;;;6.68;;
76439;SDS011;65274;44.982;20.060;2024-01-30T14:25:10;10.35;;;6.13;;
76439;SDS011;65274;44.982;20.060;2024-01-30T14:41:31;18.55;;;12.32;;
76439;SDS011;65274;44.982;20.060;2024-01-30T14:44:16;19.33;;;12.38;;
76439;SDS011;65274;44.982;20.060;2024-01-30T14:46:50;20.67;;;12.60;;
76439;SDS011;65274;44.982;20.060;2024-01-30T14:49:43;16.77;;;11.75;;
76439;SDS011;65274;44.982;20.060;2024-01-30T14:52:23;17.33;;;11.07;;
76439;SDS011;65274;44.982;20.060;2024-01-30T14:55:17;17.02;;;10.93;;
76439;SDS011;65274;44.982;20.060;2024-01-30T14:58:32;13.75;;;9.52;;
76439;SDS011;65274;44.982;20.060;2024-01-30T15:01:03;13.15;;;9.45;;
76439;SDS011;65274;44.982;20.060;2024-01-30T15:03:52;15.20;;;10.35;;
76439;SDS011;65274;44.982;20.060;2024-01-30T15:14:45;22.95;;;10.90;;
76439;SDS011;65274;44.982;20.060;2024-01-30T15:17:18;16.27;;;8.93;;
76439;SDS011;65274;44.982;20.060;2024-01-30T15:19:46;19.08;;;10.95;;
76439;SDS011;65274;44.982;20.060;2024-01-30T15:22:13;16.20;;;8.70;;
76439;SDS011;65274;44.982;20.060;2024-01-30T15:24:39;33.13;;;15.77;;
76439;SDS011;65274;44.982;20.060;2024-01-30T15:27:05;19.05;;;10.50;;
76439;SDS011;65274;44.982;20.060;2024-01-30T15:29:31;18.10;;;10.63;;
76439;SDS011;65274;44.982;20.060;2024-01-30T15:31:57;17.90;;;10.15;;
76439;SDS011;65274;44.982;20.060;2024-01-30T15:34:26;20.75;;;10.57;;
76439;SDS011;65274;44.982;20.060;2024-01-30T15:36:52;18.83;;;9.70;;
76439;SDS011;65274;44.982;20.060;2024-01-30T15:39:18;21.83;;;12.07;;
76439;SDS011;65274;44.982;20.060;2024-01-30T15:41:45;39.58;;;20.52;;
76439;SDS011;65274;44.982;20.060;2024-01-30T15:44:11;19.35;;;11.18;;
76439;SDS011;65274;44.982;20.060;2024-01-30T15:46:37;16.55;;;8.93;;
76439;SDS011;65274;44.982;20.060;2024-01-30T15:49:03;22.45;;;11.45;;
76439;SDS011;65274;44.982;20.060;2024-01-30T15:51:29;25.17;;;13.75;;
76439;SDS011;65274;44.982;20.060;2024-01-30T15:53:56;33.28;;;17.38;;
76439;SDS011;65274;44.982;20.060;2024-01-30T15:56:22;56.38;;;23.98;;
76439;SDS011;65274;44.982;20.060;2024-01-30T15:58:48;136.32;;;60.92;;
76439;SDS011;65274;44.982;20.060;2024-01-30T16:01:17;127.45;;;59.15;;
76439;SDS011;65274;44.982;20.060;2024-01-30T16:03:43;72.13;;;33.65;;
76439;SDS011;65274;44.982;20.060;2024-01-30T16:06:12;118.70;;;46.33;;
76439;SDS011;65274;44.982;20.060;2024-01-30T16:08:39;82.28;;;39.30;;
76439;SDS011;65274;44.982;20.060;2024-01-30T16:11:07;89.47;;;39.57;;
76439;SDS011;65274;44.982;20.060;2024-01-30T16:13:33;60.92;;;29.77;;
76439;SDS011;65274;44.982;20.060;2024-01-30T16:16:03;67.35;;;32.90;;
76439;SDS011;65274;44.982;20.060;2024-01-30T16:18:30;78.55;;;37.10;;
76439;SDS011;65274;44.982;20.060;2024-01-30T16:20:57;49.17;;;23.63;;
76439;SDS011;65274;44.982;20.060;2024-01-30T16:23:23;53.25;;;28.73;;
76439;SDS011;65274;44.982;20.060;2024-01-30T16:25:49;155.73;;;74.38;;
76439;SDS011;65274;44.982;20.060;2024-01-30T16:28:16;108.65;;;59.80;;
76439;SDS011;65274;44.982;20.060;2024-01-30T16:30:42;144.05;;;67.78;;
76439;SDS011;65274;44.982;20.060;2024-01-30T16:33:08;234.82;;;104.68;;
76439;SDS011;65274;44.982;20.060;2024-01-30T16:35:34;48.55;;;26.75;;
76439;SDS011;65274;44.982;20.060;2024-01-30T16:38:01;64.10;;;34.45;;
76439;SDS011;65274;44.982;20.060;2024-01-30T16:40:27;132.32;;;61.83;;
76439;SDS011;65274;44.982;20.060;2024-01-30T16:42:53;74.70;;;35.45;;
76439;SDS011;65274;44.982;20.060;2024-01-30T16:45:19;107.75;;;55.22;;
76439;SDS011;65274;44.982;20.060;2024-01-30T16:47:46;56.42;;;28.33;;
76439;SDS011;65274;44.982;20.060;2024-01-30T16:50:12;73.15;;;29.40;;
76439;SDS011;65274;44.982;20.060;2024-01-30T16:52:38;68.78;;;34.55;;
76439;SDS011;65274;44.982;20.060;2024-01-30T16:55:04;78.00;;;39.63;;
76439;SDS011;65274;44.982;20.060;2024-01-30T16:57:37;156.32;;;80.88;;
76439;SDS011;65274;44.982;20.060;2024-01-30T17:57:51;87.22;;;37.88;;
76439;SDS011;65274;44.982;20.060;2024-01-30T18:00:18;77.18;;;35.42;;
76439;SDS011;65274;44.982;20.060;2024-01-30T18:02:44;55.80;;;29.10;;
76439;SDS011;65274;44.982;20.060;2024-01-30T18:05:13;70.57;;;30.40;;
76439;SDS011;65274;44.982;20.060;2024-01-30T18:07:57;97.20;;;39.53;;
76439;SDS011;65274;44.982;20.060;2024-01-30T18:10:23;169.75;;;55.20;;
76439;SDS011;65274;44.982;20.060;2024-01-30T18:12:51;219.77;;;79.28;;
76439;SDS011;65274;44.982;20.060;2024-01-30T18:15:19;167.35;;;63.25;;
76439;SDS011;65274;44.982;20.060;2024-01-30T18:17:47;111.40;;;43.42;;
76439;SDS011;65274;44.982;20.060;2024-01-30T18:20:14;93.40;;;38.03;;
76439;SDS011;65274;44.982;20.060;2024-01-30T18:22:40;59.88;;;28.63;;
76439;SDS011;65274;44.982;20.060;2024-01-30T18:25:10;55.78;;;31.00;;
76439;SDS011;65274;44.982;20.060;2024-01-30T18:27:38;53.20;;;25.73;;
76439;SDS011;65274;44.982;20.060;2024-01-30T18:30:05;52.10;;;25.00;;
76439;SDS011;65274;44.982;20.060;2024-01-30T18:32:31;53.65;;;27.55;;
76439;SDS011;65274;44.982;20.060;2024-01-30T18:34:57;81.75;;;43.63;;
76439;SDS011;65274;44.982;20.060;2024-01-30T18:37:23;70.55;;;38.00;;
76439;SDS011;65274;44.982;20.060;2024-01-30T18:39:49;74.07;;;36.83;;
76439;SDS011;65274;44.982;20.060;2024-01-30T18:42:18;71.95;;;36.50;;
76439;SDS011;65274;44.982;20.060;2024-01-30T18:44:44;67.22;;;36.53;;
76439;SDS011;65274;44.982;20.060;2024-01-30T18:47:13;65.10;;;30.27;;
76439;SDS011;65274;44.982;20.060;2024-01-30T18:49:40;62.35;;;31.05;;
76439;SDS011;65274;44.982;20.060;2024-01-30T18:52:17;53.40;;;29.27;;
76439;SDS011;65274;44.982;20.060;2024-01-30T18:54:47;54.53;;;30.00;;
76439;SDS011;65274;44.982;20.060;2024-01-30T18:57:13;54.47;;;28.05;;
76439;SDS011;65274;44.982;20.060;2024-01-30T18:59:40;57.70;;;28.02;;
76439;SDS011;65274;44.982;20.060;2024-01-30T19:02:07;59.55;;;36.55;;
76439;SDS011;65274;44.982;20.060;2024-01-30T19:04:39;54.60;;;25.45;;
76439;SDS011;65274;44.982;20.060;2024-01-30T19:07:15;49.83;;;27.92;;
76439;SDS011;65274;44.982;20.060;2024-01-30T19:12:55;61.63;;;30.13;;
76439;SDS011;65274;44.982;20.060;2024-01-30T19:16:01;73.82;;;36.50;;
76439;SDS011;65274;44.982;20.060;2024-01-30T19:18:33;100.50;;;50.70;;
76439;SDS011;65274;44.982;20.060;2024-01-30T19:21:21;111.88;;;47.00;;
76439;SDS011;65274;44.982;20.060;2024-01-30T19:24:07;94.50;;;42.72;;
76439;SDS011;65274;44.982;20.060;2024-01-30T19:26:33;101.53;;;50.72;;
76439;SDS011;65274;44.982;20.060;2024-01-30T19:29:05;110.80;;;52.17;;
76439;SDS011;65274;44.982;20.060;2024-01-30T19:32:02;95.63;;;45.40;;
76439;SDS011;65274;44.982;20.060;2024-01-30T19:40:31;110.22;;;56.35;;
76439;SDS011;65274;44.982;20.060;2024-01-30T19:45:23;116.20;;;57.97;;
76439;SDS011;65274;44.982;20.060;2024-01-30T19:47:50;117.60;;;56.33;;
76439;SDS011;65274;44.982;20.060;2024-01-30T19:50:20;119.40;;;57.35;;
76439;SDS011;65274;44.982;20.060;2024-01-30T19:52:48;127.18;;;59.33;;
76439;SDS011;65274;44.982;20.060;2024-01-30T19:55:16;124.47;;;54.00;;
76439;SDS011;65274;44.982;20.060;2024-01-30T20:02:58;115.32;;;49.25;;
76439;SDS011;65274;44.982;20.060;2024-01-30T20:05:27;105.38;;;44.28;;
76439;SDS011;65274;44.982;20.060;2024-01-30T20:10:35;60.33;;;30.50;;
76439;SDS011;65274;44.982;20.060;2024-01-30T20:15:37;60.72;;;29.58;;
76439;SDS011;65274;44.982;20.060;2024-01-30T20:21:28;54.38;;;30.27;;
76439;SDS011;65274;44.982;20.060;2024-01-30T20:23:54;56.13;;;27.75;;
76439;SDS011;65274;44.982;20.060;2024-01-30T20:26:23;50.47;;;28.13;;
76439;SDS011;65274;44.982;20.060;2024-01-30T20:29:33;55.05;;;27.98;;
76439;SDS011;65274;44.982;20.060;2024-01-30T20:34:51;54.65;;;27.20;;
76439;SDS011;65274;44.982;20.060;2024-01-30T20:37:39;53.88;;;27.95;;
76439;SDS011;65274;44.982;20.060;2024-01-30T20:43:10;53.45;;;29.45;;
76439;SDS011;65274;44.982;20.060;2024-01-30T21:04:30;52.25;;;27.92;;
76439;SDS011;65274;44.982;20.060;2024-01-30T21:06:56;50.72;;;25.27;;
76439;SDS011;65274;44.982;20.060;2024-01-30T21:09:23;57.13;;;28.67;;
76439;SDS011;65274;44.982;20.060;2024-01-30T21:11:49;54.33;;;30.50;;
76439;SDS011;65274;44.982;20.060;2024-01-30T21:37:38;59.47;;;28.27;;
